Time,TemperatureF,DewpointF,PressureIn,WindDirection,WindDirectionDegrees,WindSpeedMPH,WindSpeedGustMPH,Humidity,HourlyPrecipIn,Conditions,Clouds,dailyrainin,SoftwareType,DateUTC
2013-04-06 00:04:00,45.0,39.0,30.02,North,5,0.0,0.0,80,0.00,,,0.00,,2013-04-06 04:04:00,
2013-04-06 00:14:00,45.0,39.0,30.02,North,5,0.0,0.0,80,0.00,,,0.00,,2013-04-06 04:14:00,
2013-04-06 00:23:00,45.0,40.0,30.02,North,5,0.0,0.0,81,0.00,,,0.00,,2013-04-06 04:23:00,
2013-04-06 00:33:00,45.0,40.0,30.03,North,5,0.0,0.0,81,0.00,,,0.00,,2013-04-06 04:33:00,
2013-04-06 00:42:00,45.0,40.0,30.03,North,5,0.0,0.0,81,0.00,,,0.00,,2013-04-06 04:42:00,
2013-04-06 00:52:00,45.0,40.0,30.03,North,5,0.0,0.0,82,0.00,,,0.00,,2013-04-06 04:52:00,
2013-04-06 01:02:00,44.0,39.0,30.03,North,5,0.0,0.0,81,0.00,,,0.00,,2013-04-06 05:02:00,
2013-04-06 01:13:00,44.0,39.0,30.03,North,5,0.0,0.0,81,0.00,,,0.00,,2013-04-06 05:13:00,
2013-04-06 01:22:00,44.0,39.0,30.03,North,5,0.0,0.0,82,0.00,,,0.00,,2013-04-06 05:22:00,
2013-04-06 01:33:00,44.0,39.0,30.03,North,5,0.0,0.0,81,0.00,,,0.00,,2013-04-06 05:33:00,
2013-04-06 01:43:00,44.0,39.0,30.03,North,5,0.0,0.0,81,0.00,,,0.00,,2013-04-06 05:43:00,
2013-04-06 01:52:00,44.0,39.0,30.04,North,5,0.0,0.0,82,0.00,,,0.00,,2013-04-06 05:52:00,
2013-04-06 02:03:00,44.0,39.0,30.04,North,5,0.0,0.0,82,0.00,,,0.00,,2013-04-06 06:03:00,
2013-04-06 02:12:00,44.0,39.0,30.04,North,5,0.0,0.0,82,0.00,,,0.00,,2013-04-06 06:12:00,
2013-04-06 02:22:00,43.0,38.0,30.04,North,5,0.0,0.0,83,0.00,,,0.00,,2013-04-06 06:22:00,
2013-04-06 02:33:00,43.0,38.0,30.04,North,5,0.0,0.0,84,0.00,,,0.00,,2013-04-06 06:33:00,
2013-04-06 02:42:00,43.0,38.0,30.04,North,5,0.0,0.0,84,0.00,,,0.00,,2013-04-06 06:42:00,
2013-04-06 02:52:00,43.0,39.0,30.04,North,5,0.0,0.0,85,0.00,,,0.00,,2013-04-06 06:52:00,
2013-04-06 03:04:00,42.0,38.0,30.04,North,5,0.0,0.0,85,0.00,,,0.00,,2013-04-06 07:04:00,
2013-04-06 03:12:00,42.0,38.0,30.04,North,5,0.0,0.0,85,0.00,,,0.00,,2013-04-06 07:12:00,
2013-04-06 03:22:00,42.0,38.0,30.04,North,5,0.0,0.0,86,0.00,,,0.00,,2013-04-06 07:22:00,
2013-04-06 03:33:00,41.0,37.0,30.04,North,5,0.0,0.0,86,0.00,,,0.00,,2013-04-06 07:33:00,
2013-04-06 03:43:00,41.0,37.0,30.04,North,5,0.0,0.0,86,0.00,,,0.00,,2013-04-06 07:43:00,
2013-04-06 03:52:00,41.0,38.0,30.04,North,5,0.0,0.0,88,0.00,,,0.00,,2013-04-06 07:52:00,
2013-04-06 04:02:00,41.0,38.0,30.04,North,5,0.0,0.0,88,0.00,,,0.00,,2013-04-06 08:02:00,
2013-04-06 04:13:00,41.0,38.0,30.04,North,5,0.0,0.0,88,0.00,,,0.00,,2013-04-06 08:13:00,
2013-04-06 04:22:00,40.0,37.0,30.04,North,5,0.0,0.0,89,0.00,,,0.00,,2013-04-06 08:22:00,
2013-04-06 04:32:00,40.0,37.0,30.05,North,5,0.0,0.0,89,0.00,,,0.00,,2013-04-06 08:32:00,
2013-04-06 04:42:00,40.0,37.0,30.05,North,5,0.0,0.0,89,0.00,,,0.00,,2013-04-06 08:42:00,
2013-04-06 04:52:00,40.0,37.0,30.05,North,5,0.0,0.0,89,0.00,,,0.00,,2013-04-06 08:52:00,
2013-04-06 05:02:00,40.0,37.0,30.05,North,5,0.0,0.0,90,0.00,,,0.00,,2013-04-06 09:02:00,
2013-04-06 05:13:00,40.0,37.0,30.05,North,5,0.0,0.0,90,0.00,,,0.00,,2013-04-06 09:13:00,
2013-04-06 05:22:00,39.0,36.0,30.05,North,5,0.0,1.0,90,0.00,,,0.00,,2013-04-06 09:22:00,
2013-04-06 05:33:00,39.0,36.0,30.06,North,5,0.0,0.0,90,0.00,,,0.00,,2013-04-06 09:33:00,
2013-04-06 05:43:00,39.0,36.0,30.06,North,5,0.0,0.0,90,0.00,,,0.00,,2013-04-06 09:43:00,
2013-04-06 05:53:00,39.0,36.0,30.07,North,5,0.0,0.0,90,0.00,,,0.00,,2013-04-06 09:53:00,
2013-04-06 06:03:00,39.0,37.0,30.07,North,5,0.0,0.0,92,0.00,,,0.00,,2013-04-06 10:03:00,
2013-04-06 06:13:00,39.0,37.0,30.07,North,5,0.0,0.0,92,0.00,,,0.00,,2013-04-06 10:13:00,
2013-04-06 06:23:00,39.0,37.0,30.07,North,5,0.0,0.0,92,0.00,,,0.00,,2013-04-06 10:23:00,
2013-04-06 06:33:00,39.0,36.0,30.08,North,5,0.0,3.0,88,0.00,,,0.00,,2013-04-06 10:33:00,
2013-04-06 06:42:00,39.0,36.0,30.08,North,5,0.0,3.0,88,0.00,,,0.00,,2013-04-06 10:42:00,
2013-04-06 06:53:00,39.0,36.0,30.09,North,5,0.0,0.0,88,0.00,,,0.00,,2013-04-06 10:53:00,
2013-04-06 07:03:00,38.0,35.0,30.09,North,5,0.0,0.0,90,0.00,,,0.00,,2013-04-06 11:03:00,
2013-04-06 07:13:00,38.0,35.0,30.09,North,5,0.0,0.0,90,0.00,,,0.00,,2013-04-06 11:13:00,
2013-04-06 07:23:00,38.0,35.0,30.11,North,5,0.0,0.0,90,0.00,,,0.00,,2013-04-06 11:23:00,
2013-04-06 07:33:00,38.0,36.0,30.13,North,5,0.0,0.0,91,0.00,,,0.00,,2013-04-06 11:33:00,
2013-04-06 07:43:00,38.0,36.0,30.13,North,5,0.0,0.0,91,0.00,,,0.00,,2013-04-06 11:43:00,
2013-04-06 07:52:00,38.0,36.0,30.13,North,5,0.0,0.0,92,0.00,,,0.00,,2013-04-06 11:52:00,
2013-04-06 08:02:00,38.0,36.0,30.13,North,5,0.0,0.0,93,0.00,,,0.00,,2013-04-06 12:02:00,
2013-04-06 08:22:00,38.0,36.0,30.14,North,5,0.0,0.0,93,0.00,,,0.00,,2013-04-06 12:22:00,
2013-04-06 08:33:00,38.0,36.0,30.14,North,5,0.0,0.0,93,0.00,,,0.00,,2013-04-06 12:33:00,
2013-04-06 08:44:00,38.0,36.0,30.14,North,5,0.0,0.0,93,0.00,,,0.00,,2013-04-06 12:44:00,
2013-04-06 08:52:00,39.0,37.0,30.14,North,5,0.0,0.0,94,0.00,,,0.00,,2013-04-06 12:52:00,
2013-04-06 09:03:00,40.0,38.0,30.15,North,5,0.0,0.0,94,0.00,,,0.00,,2013-04-06 13:03:00,
2013-04-06 09:13:00,40.0,38.0,30.15,North,5,0.0,0.0,94,0.00,,,0.00,,2013-04-06 13:13:00,
2013-04-06 09:24:00,42.0,40.0,30.16,North,5,0.0,0.0,91,0.00,,,0.00,,2013-04-06 13:24:00,
2013-04-06 09:32:00,45.0,42.0,30.16,North,5,0.0,2.0,88,0.00,,,0.00,,2013-04-06 13:32:00,
2013-04-06 09:43:00,45.0,42.0,30.16,North,5,0.0,2.0,88,0.00,,,0.00,,2013-04-06 13:43:00,
2013-04-06 09:52:00,49.0,44.0,30.16,North,5,0.0,1.0,82,0.00,,,0.00,,2013-04-06 13:52:00,
2013-04-06 10:05:00,53.0,39.0,30.16,North,5,1.0,4.0,58,0.00,,,0.00,,2013-04-06 14:05:00,
2013-04-06 10:12:00,53.0,39.0,30.16,North,5,1.0,4.0,58,0.00,,,0.00,,2013-04-06 14:12:00,
2013-04-06 10:22:00,58.0,37.0,30.15,North,5,1.0,5.0,45,0.00,,,0.00,,2013-04-06 14:22:00,
2013-04-06 10:33:00,61.0,36.0,30.16,North,5,3.0,6.0,40,0.00,,,0.00,,2013-04-06 14:33:00,
2013-04-06 10:43:00,61.0,36.0,30.16,North,5,3.0,6.0,40,0.00,,,0.00,,2013-04-06 14:43:00,
2013-04-06 10:52:00,61.0,35.0,30.16,North,5,3.0,6.0,38,0.00,,,0.00,,2013-04-06 14:52:00,
2013-04-06 11:02:00,62.0,35.0,30.16,North,5,3.0,8.0,36,0.00,,,0.00,,2013-04-06 15:02:00,
2013-04-06 11:12:00,62.0,35.0,30.16,North,5,3.0,8.0,36,0.00,,,0.00,,2013-04-06 15:12:00,
2013-04-06 11:23:00,63.0,36.0,30.16,North,5,2.0,5.0,36,0.00,,,0.00,,2013-04-06 15:23:00,
2013-04-06 11:33:00,63.0,34.0,30.17,North,5,2.0,8.0,34,0.00,,,0.00,,2013-04-06 15:33:00,
2013-04-06 11:43:00,63.0,34.0,30.17,North,5,2.0,8.0,34,0.00,,,0.00,,2013-04-06 15:43:00,
2013-04-06 11:53:00,63.0,33.0,30.17,North,5,3.0,8.0,33,0.00,,,0.00,,2013-04-06 15:53:00,
2013-04-06 12:05:00,64.0,34.0,30.17,North,5,4.0,9.0,32,0.00,,,0.00,,2013-04-06 16:05:00,
2013-04-06 12:17:00,64.0,34.0,30.17,North,5,4.0,9.0,32,0.00,,,0.00,,2013-04-06 16:17:00,
2013-04-06 12:23:00,64.0,34.0,30.17,North,5,1.0,7.0,33,0.00,,,0.00,,2013-04-06 16:23:00,
2013-04-06 12:33:00,64.0,33.0,30.17,North,5,1.0,7.0,31,0.00,,,0.00,,2013-04-06 16:33:00,
2013-04-06 12:42:00,64.0,33.0,30.17,North,5,1.0,7.0,31,0.00,,,0.00,,2013-04-06 16:42:00,
2013-04-06 12:53:00,64.0,34.0,30.17,North,5,1.0,12.0,32,0.00,,,0.00,,2013-04-06 16:53:00,
2013-04-06 13:03:00,65.0,34.0,30.16,North,5,1.0,10.0,31,0.00,,,0.00,,2013-04-06 17:03:00,
2013-04-06 13:12:00,65.0,34.0,30.16,North,5,1.0,10.0,31,0.00,,,0.00,,2013-04-06 17:12:00,
2013-04-06 13:22:00,66.0,34.0,30.16,North,5,3.0,12.0,31,0.00,,,0.00,,2013-04-06 17:22:00,
2013-04-06 13:33:00,66.0,38.0,30.16,North,5,5.0,15.0,35,0.00,,,0.00,,2013-04-06 17:33:00,
2013-04-06 13:42:00,66.0,38.0,30.16,North,5,5.0,15.0,35,0.00,,,0.00,,2013-04-06 17:42:00,
2013-04-06 13:52:00,66.0,35.0,30.16,North,5,3.0,11.0,32,0.00,,,0.00,,2013-04-06 17:52:00,
2013-04-06 14:03:00,66.0,34.0,30.15,North,5,1.0,7.0,31,0.00,,,0.00,,2013-04-06 18:03:00,
2013-04-06 14:12:00,66.0,34.0,30.15,North,5,1.0,7.0,31,0.00,,,0.00,,2013-04-06 18:12:00,
2013-04-06 14:24:00,67.0,35.0,30.14,North,5,2.0,7.0,31,0.00,,,0.00,,2013-04-06 18:24:00,
2013-04-06 14:32:00,67.0,35.0,30.14,North,5,1.0,6.0,31,0.00,,,0.00,,2013-04-06 18:32:00,
2013-04-06 14:42:00,67.0,35.0,30.14,North,5,1.0,6.0,31,0.00,,,0.00,,2013-04-06 18:42:00,
2013-04-06 14:52:00,68.0,35.0,30.14,North,5,1.0,10.0,30,0.00,,,0.00,,2013-04-06 18:52:00,
2013-04-06 15:03:00,67.0,35.0,30.13,North,5,2.0,7.0,30,0.00,,,0.00,,2013-04-06 19:03:00,
2013-04-06 15:12:00,67.0,35.0,30.13,North,5,2.0,7.0,30,0.00,,,0.00,,2013-04-06 19:12:00,
2013-04-06 15:23:00,69.0,35.0,30.12,North,5,3.0,8.0,28,0.00,,,0.00,,2013-04-06 19:23:00,
2013-04-06 15:33:00,68.0,35.0,30.11,North,5,4.0,7.0,29,0.00,,,0.00,,2013-04-06 19:33:00,
2013-04-06 15:42:00,68.0,35.0,30.11,North,5,4.0,7.0,29,0.00,,,0.00,,2013-04-06 19:42:00,
2013-04-06 15:54:00,69.0,34.0,30.11,North,5,2.0,6.0,27,0.00,,,0.00,,2013-04-06 19:54:00,
2013-04-06 16:03:00,69.0,33.0,30.11,North,5,2.0,8.0,26,0.00,,,0.00,,2013-04-06 20:03:00,
2013-04-06 16:12:00,69.0,33.0,30.11,North,5,2.0,8.0,26,0.00,,,0.00,,2013-04-06 20:12:00,
2013-04-06 16:23:00,70.0,34.0,30.10,North,5,3.0,9.0,26,0.00,,,0.00,,2013-04-06 20:23:00,
2013-04-06 16:32:00,70.0,34.0,30.09,North,5,1.0,4.0,27,0.00,,,0.00,,2013-04-06 20:32:00,
2013-04-06 16:42:00,70.0,34.0,30.09,North,5,1.0,4.0,27,0.00,,,0.00,,2013-04-06 20:42:00,
2013-04-06 16:53:00,70.0,35.0,30.09,North,5,2.0,6.0,28,0.00,,,0.00,,2013-04-06 20:53:00,
2013-04-06 17:02:00,69.0,33.0,30.08,North,5,2.0,5.0,26,0.00,,,0.00,,2013-04-06 21:02:00,
2013-04-06 17:13:00,70.0,33.0,30.08,North,5,3.0,7.0,25,0.00,,,0.00,,2013-04-06 21:13:00,
2013-04-06 17:22:00,70.0,33.0,30.08,North,5,3.0,7.0,25,0.00,,,0.00,,2013-04-06 21:22:00,
2013-04-06 17:33:00,70.0,34.0,30.08,North,5,1.0,6.0,26,0.00,,,0.00,,2013-04-06 21:33:00,
2013-04-06 17:43:00,70.0,34.0,30.08,North,5,1.0,6.0,26,0.00,,,0.00,,2013-04-06 21:43:00,
2013-04-06 17:53:00,69.0,34.0,30.08,North,5,2.0,4.0,27,0.00,,,0.00,,2013-04-06 21:53:00,
2013-04-06 18:03:00,69.0,34.0,30.08,North,5,2.0,4.0,27,0.00,,,0.00,,2013-04-06 22:03:00,
2013-04-06 18:13:00,69.0,34.0,30.08,North,5,2.0,4.0,27,0.00,,,0.00,,2013-04-06 22:13:00,
2013-04-06 18:23:00,69.0,34.0,30.08,North,5,3.0,10.0,27,0.00,,,0.00,,2013-04-06 22:23:00,
2013-04-06 18:34:00,69.0,34.0,30.08,North,5,2.0,7.0,27,0.00,,,0.00,,2013-04-06 22:34:00,
2013-04-06 18:44:00,69.0,34.0,30.08,North,5,2.0,7.0,27,0.00,,,0.00,,2013-04-06 22:44:00,
2013-04-06 18:54:00,68.0,34.0,30.09,North,5,0.0,5.0,28,0.00,,,0.00,,2013-04-06 22:54:00,
2013-04-06 19:03:00,68.0,35.0,30.09,North,5,0.0,2.0,30,0.00,,,0.00,,2013-04-06 23:03:00,
2013-04-06 19:14:00,68.0,35.0,30.09,North,5,0.0,2.0,30,0.00,,,0.00,,2013-04-06 23:14:00,
2013-04-06 19:23:00,67.0,35.0,30.09,North,5,0.0,2.0,30,0.00,,,0.00,,2013-04-06 23:23:00,
2013-04-06 19:34:00,67.0,35.0,30.09,North,5,0.0,3.0,31,0.00,,,0.00,,2013-04-06 23:34:00,
2013-04-06 19:43:00,67.0,35.0,30.09,North,5,0.0,3.0,31,0.00,,,0.00,,2013-04-06 23:43:00,
2013-04-06 19:53:00,66.0,41.0,30.09,North,5,0.0,3.0,40,0.00,,,0.00,,2013-04-06 23:53:00,
2013-04-06 20:02:00,63.0,44.0,30.09,North,5,0.0,1.0,50,0.00,,,0.00,,2013-04-07 00:02:00,
2013-04-06 20:13:00,63.0,44.0,30.09,North,5,0.0,1.0,50,0.00,,,0.00,,2013-04-07 00:13:00,
2013-04-06 20:22:00,61.0,43.0,30.10,North,5,0.0,0.0,52,0.00,,,0.00,,2013-04-07 00:22:00,
2013-04-06 20:33:00,59.0,43.0,30.10,North,5,0.0,0.0,56,0.00,,,0.00,,2013-04-07 00:33:00,
2013-04-06 20:43:00,59.0,43.0,30.10,North,5,0.0,0.0,56,0.00,,,0.00,,2013-04-07 00:43:00,
2013-04-06 20:53:00,57.0,43.0,30.10,North,5,0.0,0.0,59,0.00,,,0.00,,2013-04-07 00:53:00,
2013-04-06 21:02:00,56.0,42.0,30.10,North,5,0.0,0.0,60,0.00,,,0.00,,2013-04-07 01:02:00,
2013-04-06 21:12:00,56.0,42.0,30.10,North,5,0.0,0.0,60,0.00,,,0.00,,2013-04-07 01:12:00,
2013-04-06 21:23:00,56.0,42.0,30.10,North,5,0.0,0.0,59,0.00,,,0.00,,2013-04-07 01:23:00,
2013-04-06 21:33:00,55.0,42.0,30.11,North,5,0.0,0.0,61,0.00,,,0.00,,2013-04-07 01:33:00,
2013-04-06 21:43:00,55.0,42.0,30.11,North,5,0.0,0.0,61,0.00,,,0.00,,2013-04-07 01:43:00,
2013-04-06 21:53:00,54.0,42.0,30.11,North,5,0.0,0.0,63,0.00,,,0.00,,2013-04-07 01:53:00,
2013-04-06 22:03:00,53.0,42.0,30.12,North,5,0.0,0.0,65,0.00,,,0.00,,2013-04-07 02:03:00,
2013-04-06 22:12:00,53.0,42.0,30.12,North,5,0.0,0.0,65,0.00,,,0.00,,2013-04-07 02:12:00,
2013-04-06 22:23:00,53.0,42.0,30.12,North,5,0.0,0.0,65,0.00,,,0.00,,2013-04-07 02:23:00,
2013-04-06 22:33:00,52.0,41.0,30.12,North,5,0.0,0.0,66,0.00,,,0.00,,2013-04-07 02:33:00,
2013-04-06 22:43:00,52.0,41.0,30.12,North,5,0.0,0.0,66,0.00,,,0.00,,2013-04-07 02:43:00,
2013-04-06 22:52:00,52.0,41.0,30.12,North,5,0.0,1.0,65,0.00,,,0.00,,2013-04-07 02:52:00,
2013-04-06 23:02:00,52.0,41.0,30.12,North,5,0.0,0.0,67,0.00,,,0.00,,2013-04-07 03:02:00,
2013-04-06 23:13:00,52.0,41.0,30.12,North,5,0.0,0.0,67,0.00,,,0.00,,2013-04-07 03:13:00,
2013-04-06 23:22:00,52.0,42.0,30.13,North,5,0.0,0.0,69,0.00,,,0.00,,2013-04-07 03:22:00,
2013-04-06 23:35:00,51.0,42.0,30.13,North,5,0.0,0.0,70,0.00,,,0.00,,2013-04-07 03:35:00,
2013-04-06 23:44:00,51.0,42.0,30.13,North,5,0.0,0.0,70,0.00,,,0.00,,2013-04-07 03:44:00,
2013-04-06 23:55:00,51.0,42.0,30.13,North,5,0.0,0.0,70,0.00,,,0.00,,2013-04-07 03:55:00,